Time;durP1;ratioP1;P1;durP2;ratioP2;P2;SDS_P1;SDS_P2;PMS_P1;PMS_P2;Temp;Humidity;BMP_temperature;BMP_pressure;BME280_temperature;BME280_humidity;BME280_pressure;Samples;Min_cycle;Max_cycle;Signal;HPM_P1;HPM_P2
2021/12/22 00:00:15;;;;;;;;;;;;;;;;;;1905187;28;7006;-63
2021/12/22 00:01:13;;;;;;;;;;;;;;;;;;1905607;28;8087;-63
2021/12/22 00:02:10;;;;;;;;;;;;;;;;;;1906373;28;7096;-63
2021/12/22 00:03:09;;;;;;;;;;;;;;;;;;1904364;28;7017;-63
2021/12/22 00:04:07;;;;;;;;;;;;;;;;;;1904379;28;7017;-63
2021/12/22 00:05:05;;;;;;;;;;;;;;;;;;1897791;28;7092;-63
2021/12/22 00:06:03;;;;;;;;;;;;;;;;;;1898534;28;7088;-64
2021/12/22 00:07:00;;;;;;;;;;;;;;;;;;1905776;28;7061;-64
2021/12/22 00:07:58;;;;;;;;;;;;;;;;;;1898642;28;8084;-64
2021/12/22 00:08:57;;;;;;;;;;;;;;;;;;1895419;28;7097;-63
2021/12/22 00:09:55;;;;;;;;;;;;;;;;;;1905036;28;7033;-63
2021/12/22 00:10:53;;;;;;;;;;;;;;;;;;1906107;28;8009;-63
2021/12/22 00:11:51;;;;;;;;;;;;;;;;;;1889977;28;7117;-63
2021/12/22 00:12:49;;;;;;;;;;;;;;;;;;1890330;28;7180;-63
2021/12/22 00:13:46;;;;;;;;;;;;;;;;;;1894583;28;7556;-64
2021/12/22 00:14:44;;;;;;;;;;;;;;;;;;1897678;28;7013;-63
2021/12/22 00:15:42;;;;;;;;;;;;;;;;;;1904239;28;7026;-63
2021/12/22 00:16:39;;;;;;;;;;;;;;;;;;1905350;28;7092;-63
2021/12/22 00:17:37;;;;;;;;;;;;;;;;;;1897867;28;7200;-63
2021/12/22 00:18:34;;;;;;;;;;;;;;;;;;1897870;28;7101;-63
2021/12/22 00:19:32;;;;;;;;;;;;;;;;;;1903364;28;7167;-63
2021/12/22 00:20:29;;;;;;;;;;;;;;;;;;1905745;28;7010;-63
2021/12/22 00:21:29;;;;;;;;;;;;;;;;;;1905642;28;7005;-63
2021/12/22 00:22:27;;;;;;;;;;;;;;;;;;1904211;28;7128;-63
2021/12/22 00:23:24;;;;;;;;;;;;;;;;;;1897748;28;8365;-63
2021/12/22 00:24:21;;;;;;;;;;;;;;;;;;1898482;28;7092;-64
2021/12/22 00:25:21;;;;;;;;;;;;;;;;;;1906781;28;7006;-63
2021/12/22 00:26:18;;;;;;;;;;;;;;;;;;1907401;28;7009;-63
2021/12/22 00:27:16;;;;;;;;;;;;;;;;;;1907837;28;8717;-63
2021/12/22 00:28:13;;;;;;;;;;;;;;;;;;1906258;28;7073;-63
2021/12/22 00:29:12;;;;;;;;;;;;;;;;;;1907803;28;7112;-63
2021/12/22 00:30:10;;;;;;;;;;;;;;;;;;1907162;28;7092;-63
2021/12/22 00:31:13;;;;;;;;;;;;;;;;;;1907656;28;7009;-63
2021/12/22 00:32:14;;;;;;;;;;;;;;;;;;1906033;28;8586;-63
2021/12/22 00:33:13;;;;;;;;;;;;;;;;;;1906561;28;7105;-63
2021/12/22 00:34:16;;;;;;;;;;;;;;;;;;1906978;28;7139;-63
2021/12/22 00:35:13;;;;;;;;;;;;;;;;;;1903463;28;7010;-63
2021/12/22 00:36:11;;;;;;;;;;;;;;;;;;1904393;28;7139;-63
2021/12/22 00:37:09;;;;;;;;;;;;;;;;;;1905617;28;7319;-64
2021/12/22 00:38:08;;;;;;;;;;;;;;;;;;1905972;28;7089;-63
2021/12/22 00:39:05;;;;;;;;;;;;;;;;;;1906458;28;7009;-63
2021/12/22 00:40:03;;;;;;;;;;;;;;;;;;1906121;28;7030;-63
2021/12/22 00:41:01;;;;;;;;;;;;;;;;;;1906147;28;7038;-63
2021/12/22 00:41:58;;;;;;;;;;;;;;;;;;1904272;28;7013;-63
2021/12/22 00:42:55;;;;;;;;;;;;;;;;;;1903973;28;7022;-63
2021/12/22 00:43:53;;;;;;;;;;;;;;;;;;1900272;28;7144;-62
2021/12/22 00:44:53;;;;;;;;;;;;;;;;;;1904275;28;7121;-63
2021/12/22 00:45:56;;;;;;;;;;;;;;;;;;1905121;28;7041;-63
2021/12/22 00:46:53;;;;;;;;;;;;;;;;;;1904794;28;7025;-63
2021/12/22 00:47:51;;;;;;;;;;;;;;;;;;1905372;28;7006;-63
2021/12/22 00:48:49;;;;;;;;;;;;;;;;;;1905095;28;8103;-63
2021/12/22 00:49:47;;;;;;;;;;;;;;;;;;1904893;28;7152;-63
2021/12/22 00:50:45;;;;;;;;;;;;;;;;;;1905168;28;7038;-63
2021/12/22 00:51:42;;;;;;;;;;;;;;;;;;1904190;28;7021;-63
2021/12/22 00:52:39;;;;;;;;;;;;;;;;;;1905073;28;7037;-64
2021/12/22 00:53:37;;;;;;;;;;;;;;;;;;1896599;28;7046;-62
2021/12/22 00:54:34;;;;;;;;;;;;;;;;;;1897630;28;7029;-63
2021/12/22 00:55:32;;;;;;;;;;;;;;;;;;1903935;28;7013;-63
2021/12/22 00:56:30;;;;;;;;;;;;;;;;;;1904966;28;7165;-63
2021/12/22 00:57:27;;;;;;;;;;;;;;;;;;1904904;28;7013;-63
2021/12/22 00:58:24;;;;;;;;;;;;;;;;;;1904865;28;7128;-64
2021/12/22 00:59:22;;;;;;;;;;;;;;;;;;1905360;28;7113;-63
2021/12/22 01:00:21;;;;;;;;;;;;;;;;;;1904245;28;8079;-63
2021/12/22 01:01:19;;;;;;;;;;;;;;;;;;1906116;28;7025;-63
2021/12/22 01:02:18;;;;;;;;;;;;;;;;;;1905208;28;7038;-64
2021/12/22 01:03:17;;;;;;;;;;;;;;;;;;1905032;28;7074;-63
2021/12/22 01:04:14;;;;;;;;;;;;;;;;;;1904941;28;7152;-62
2021/12/22 01:05:14;;;;;;;;;;;;;;;;;;1905168;28;7046;-63
2021/12/22 01:06:14;;;;;;;;;;;;;;;;;;1905873;28;7010;-64
2021/12/22 01:07:11;;;;;;;;;;;;;;;;;;1903295;28;7062;-63
2021/12/22 01:08:09;;;;;;;;;;;;;;;;;;1905772;28;7006;-63
2021/12/22 01:09:06;;;;;;;;;;;;;;;;;;1904166;28;7047;-63
2021/12/22 01:10:04;;;;;;;;;;;;;;;;;;1898309;28;7041;-63
2021/12/22 01:11:02;;;;;;;;;;;;;;;;;;1902018;28;7010;-64
2021/12/22 01:11:59;;;;;;;;;;;;;;;;;;1905019;28;7113;-63
2021/12/22 01:12:59;;;;;;;;;;;;;;;;;;1905730;28;7276;-63
2021/12/22 01:13:57;;;;;;;;;;;;;;;;;;1904791;28;7116;-63
2021/12/22 01:14:54;;;;;;;;;;;;;;;;;;1905423;28;7001;-63
2021/12/22 01:15:52;;;;;;;;;;;;;;;;;;1905842;28;9326;-63
2021/12/22 01:16:51;;;;;;;;;;;;;;;;;;1905876;28;7105;-63
2021/12/22 01:17:57;;;;;;;;;;;;;;;;;;1904592;28;7042;-64
2021/12/22 01:18:55;;;;;;;;;;;;;;;;;;1904923;28;7092;-64
2021/12/22 01:20:02;;;;;;;;;;;;;;;;;;1905430;28;7030;-63
2021/12/22 01:23:19;;;;;;;;;;;;;;;;;;1905346;28;7005;-63
2021/12/22 01:24:28;;;;;;;;;;;;;;;;;;1905447;28;7045;-63
2021/12/22 01:25:25;;;;;;;;;;;;;;;;;;1905540;28;7077;-62
2021/12/22 01:26:23;;;;;;;;;;;;;;;;;;1905290;28;7002;-63
2021/12/22 01:27:24;;;;;;;;;;;;;;;;;;1905181;28;7348;-63
2021/12/22 01:28:24;;;;;;;;;;;;;;;;;;1905621;28;7097;-63
2021/12/22 01:29:21;;;;;;;;;;;;;;;;;;1905619;28;7076;-64
2021/12/22 01:30:21;;;;;;;;;;;;;;;;;;1905761;28;7037;-63
2021/12/22 01:31:18;;;;;;;;;;;;;;;;;;1905380;28;7009;-63
2021/12/22 01:32:17;;;;;;;;;;;;;;;;;;1905435;28;7028;-63
2021/12/22 01:33:16;;;;;;;;;;;;;;;;;;1905222;28;7006;-63
2021/12/22 01:34:13;;;;;;;;;;;;;;;;;;1905254;28;7009;-63
2021/12/22 01:35:13;;;;;;;;;;;;;;;;;;1904988;28;7038;-63
2021/12/22 01:36:10;;;;;;;;;;;;;;;;;;1905464;28;7308;-63
2021/12/22 01:37:08;;;;;;;;;;;;;;;;;;1905644;28;7005;-63
2021/12/22 01:38:06;;;;;;;;;;;;;;;;;;1905820;28;7096;-63
2021/12/22 01:39:05;;;;;;;;;;;;;;;;;;1890274;28;7005;-63
2021/12/22 01:40:03;;;;;;;;;;;;;;;;;;1889474;28;7152;-63
2021/12/22 01:41:01;;;;;;;;;;;;;;;;;;1903956;28;7009;-62
2021/12/22 01:41:58;;;;;;;;;;;;;;;;;;1905614;28;7976;-63
2021/12/22 01:42:56;;;;;;;;;;;;;;;;;;1903764;28;7135;-63
2021/12/22 01:43:54;;;;;;;;;;;;;;;;;;1905634;28;7046;-63
2021/12/22 01:46:32;;;;;;;;;;;;;;;;;;1905514;28;7013;-63
2021/12/22 01:50:09;;;;;;;;;;;;;;;;;;1905205;28;7121;-63
2021/12/22 01:51:08;;;;;;;;;;;;;;;;;;1897339;28;7009;-63
2021/12/22 01:52:06;;;;;;;;;;;;;;;;;;1889723;28;7025;-63
2021/12/22 01:53:27;;;;;;;;;;;;;;;;;;1901142;28;7014;-64
2021/12/22 01:54:30;;;;;;;;;;;;;;;;;;1909776;28;7093;-63
2021/12/22 01:55:34;;;;;;;;;;;;;;;;;;1905819;28;7001;-64
2021/12/22 01:56:34;;;;;;;;;;;;;;;;;;1904697;28;8111;-63
2021/12/22 01:57:34;;;;;;;;;;;;;;;;;;1904174;28;7113;-62
2021/12/22 01:58:43;;;;;;;;;;;;;;;;;;1904446;28;7021;-63
2021/12/22 01:59:42;;;;;;;;;;;;;;;;;;1904528;28;7009;-63
2021/12/22 02:00:40;;;;;;;;;;;;;;;;;;1905148;28;7021;-63
2021/12/22 02:01:38;;;;;;;;;;;;;;;;;;1906086;28;7021;-63
2021/12/22 02:02:36;;;;;;;;;;;;;;;;;;1905482;28;7096;-63
2021/12/22 02:03:33;;;;;;;;;;;;;;;;;;1903994;28;7044;-63
2021/12/22 02:04:32;;;;;;;;;;;;;;;;;;1904399;28;7096;-63
2021/12/22 02:05:30;;;;;;;;;;;;;;;;;;1904825;28;7022;-63
2021/12/22 02:06:27;;;;;;;;;;;;;;;;;;1904899;28;7029;-63
2021/12/22 02:07:25;;;;;;;;;;;;;;;;;;1904752;28;7041;-64
2021/12/22 02:08:22;;;;;;;;;;;;;;;;;;1905464;28;7022;-63
2021/12/22 02:10:38;;;;;;;;;;;;;;;;;;1905870;28;8196;-62
2021/12/22 02:11:39;;;;;;;;;;;;;;;;;;1905535;28;7096;-63
2021/12/22 02:12:42;;;;;;;;;;;;;;;;;;1904897;28;7331;-63
2021/12/22 02:13:44;;;;;;;;;;;;;;;;;;1904403;28;8044;-63
2021/12/22 02:14:42;;;;;;;;;;;;;;;;;;1903307;28;7010;-63
2021/12/22 02:15:41;;;;;;;;;;;;;;;;;;1905483;28;7097;-63
2021/12/22 02:16:40;;;;;;;;;;;;;;;;;;1903916;28;7116;-64
2021/12/22 02:17:39;;;;;;;;;;;;;;;;;;1904949;28;7009;-64
2021/12/22 02:18:39;;;;;;;;;;;;;;;;;;1904884;28;7013;-63
2021/12/22 02:19:40;;;;;;;;;;;;;;;;;;1905246;28;8059;-63
2021/12/22 02:20:37;;;;;;;;;;;;;;;;;;1903892;28;7014;-64
2021/12/22 02:21:43;;;;;;;;;;;;;;;;;;1904920;28;7050;-63
2021/12/22 02:22:42;;;;;;;;;;;;;;;;;;1904940;28;7113;-64
2021/12/22 02:23:41;;;;;;;;;;;;;;;;;;1904945;28;7029;-64
2021/12/22 02:24:39;;;;;;;;;;;;;;;;;;1904640;28;8060;-63
2021/12/22 02:25:45;;;;;;;;;;;;;;;;;;1905192;28;7092;-63
2021/12/22 02:27:01;;;;;;;;;;;;;;;;;;1910144;28;8040;-63
2021/12/22 02:28:01;;;;;;;;;;;;;;;;;;1912067;28;7134;-63
2021/12/22 02:29:04;;;;;;;;;;;;;;;;;;1908515;28;7042;-63
2021/12/22 02:30:04;;;;;;;;;;;;;;;;;;1905387;28;7009;-64
2021/12/22 02:31:02;;;;;;;;;;;;;;;;;;1904805;28;7384;-63
2021/12/22 02:32:08;;;;;;;;;;;;;;;;;;1905047;28;7040;-63
2021/12/22 02:33:20;;;;;;;;;;;;;;;;;;1900288;28;7097;-63
2021/12/22 02:34:17;;;;;;;;;;;;;;;;;;1903400;28;7229;-63
2021/12/22 02:35:15;;;;;;;;;;;;;;;;;;1912859;28;8059;-63
2021/12/22 02:37:24;;;;;;;;;;;;;;;;;;1906632;28;7070;-63
2021/12/22 02:38:21;;;;;;;;;;;;;;;;;;1903730;28;7042;-63
2021/12/22 02:39:19;;;;;;;;;;;;;;;;;;1896587;28;7009;-63
2021/12/22 02:40:19;;;;;;;;;;;;;;;;;;1897541;28;8072;-63
2021/12/22 02:41:17;;;;;;;;;;;;;;;;;;1897315;28;7163;-64
2021/12/22 02:42:19;;;;;;;;;;;;;;;;;;1897199;28;7010;-64
2021/12/22 02:43:22;;;;;;;;;;;;;;;;;;1897294;28;7006;-64
2021/12/22 02:44:22;;;;;;;;;;;;;;;;;;1894928;28;7006;-63
2021/12/22 02:45:20;;;;;;;;;;;;;;;;;;1894650;28;8096;-63
2021/12/22 02:46:19;;;;;;;;;;;;;;;;;;1897574;28;7207;-63
2021/12/22 02:47:22;;;;;;;;;;;;;;;;;;1896837;28;7089;-63
2021/12/22 02:48:19;;;;;;;;;;;;;;;;;;1896105;28;7191;-64
2021/12/22 02:49:17;;;;;;;;;;;;;;;;;;1890796;28;7084;-63
2021/12/22 02:50:16;;;;;;;;;;;;;;;;;;1896603;28;7006;-63
2021/12/22 02:51:13;;;;;;;;;;;;;;;;;;1896881;28;7038;-63
2021/12/22 02:52:11;;;;;;;;;;;;;;;;;;1888826;28;7051;-63
2021/12/22 02:53:12;;;;;;;;;;;;;;;;;;1889591;28;7013;-63
2021/12/22 02:54:22;;;;;;;;;;;;;;;;;;1896640;28;7009;-63
2021/12/22 02:55:27;;;;;;;;;;;;;;;;;;1896785;28;7022;-63
2021/12/22 02:56:29;;;;;;;;;;;;;;;;;;1896845;28;7038;-64
2021/12/22 02:57:34;;;;;;;;;;;;;;;;;;1896672;28;7009;-63
2021/12/22 02:58:42;;;;;;;;;;;;;;;;;;1896456;28;7001;-63
2021/12/22 03:00:33;;;;;;;;;;;;;;;;;;1897210;28;7092;-63
2021/12/22 03:02:25;;;;;;;;;;;;;;;;;;1896901;28;7042;-63
2021/12/22 03:04:31;;;;;;;;;;;;;;;;;;1896297;28;7053;-63
2021/12/22 03:05:29;;;;;;;;;;;;;;;;;;1897075;28;7114;-63
2021/12/22 03:06:41;;;;;;;;;;;;;;;;;;1897620;28;7109;-63
2021/12/22 03:07:38;;;;;;;;;;;;;;;;;;1896733;28;7001;-63
2021/12/22 03:08:36;;;;;;;;;;;;;;;;;;1897466;28;7006;-63
2021/12/22 03:09:35;;;;;;;;;;;;;;;;;;1896707;28;8040;-63
2021/12/22 03:10:33;;;;;;;;;;;;;;;;;;1896609;28;7089;-63
2021/12/22 03:11:33;;;;;;;;;;;;;;;;;;1897116;28;7017;-63
2021/12/22 03:12:33;;;;;;;;;;;;;;;;;;1897466;28;7121;-62
2021/12/22 03:13:31;;;;;;;;;;;;;;;;;;1896510;28;7097;-64
2021/12/22 03:14:29;;;;;;;;;;;;;;;;;;1897138;28;8010;-63
2021/12/22 03:15:26;;;;;;;;;;;;;;;;;;1897102;28;7288;-63
2021/12/22 03:16:24;;;;;;;;;;;;;;;;;;1896411;28;7093;-64
2021/12/22 03:17:21;;;;;;;;;;;;;;;;;;1897050;28;7042;-63
2021/12/22 03:18:19;;;;;;;;;;;;;;;;;;1896522;28;7109;-63
2021/12/22 03:19:18;;;;;;;;;;;;;;;;;;1897139;28;7022;-63
2021/12/22 03:20:16;;;;;;;;;;;;;;;;;;1897093;28;7005;-63
2021/12/22 03:21:20;;;;;;;;;;;;;;;;;;1896179;28;7097;-64
2021/12/22 03:22:20;;;;;;;;;;;;;;;;;;1896970;28;8006;-63
2021/12/22 03:23:17;;;;;;;;;;;;;;;;;;1897709;28;7021;-63
2021/12/22 03:24:18;;;;;;;;;;;;;;;;;;1897819;28;7038;-64
2021/12/22 03:25:17;;;;;;;;;;;;;;;;;;1896584;28;7010;-63
2021/12/22 03:26:16;;;;;;;;;;;;;;;;;;1889359;28;8112;-62
2021/12/22 03:27:14;;;;;;;;;;;;;;;;;;1888460;28;7017;-64
2021/12/22 03:28:11;;;;;;;;;;;;;;;;;;1896303;28;7100;-63
2021/12/22 03:29:10;;;;;;;;;;;;;;;;;;1897211;28;7009;-63
2021/12/22 03:30:08;;;;;;;;;;;;;;;;;;1896725;28;7137;-63
2021/12/22 03:31:05;;;;;;;;;;;;;;;;;;1898821;28;7013;-63
2021/12/22 03:32:03;;;;;;;;;;;;;;;;;;1899426;28;7017;-63
2021/12/22 03:33:01;;;;;;;;;;;;;;;;;;1899045;28;7044;-63
2021/12/22 03:33:58;;;;;;;;;;;;;;;;;;1898538;28;7001;-63
2021/12/22 03:34:56;;;;;;;;;;;;;;;;;;1898847;28;7022;-63
2021/12/22 03:35:53;;;;;;;;;;;;;;;;;;1898612;28;7009;-63
2021/12/22 03:36:51;;;;;;;;;;;;;;;;;;1898639;28;7009;-63
2021/12/22 03:37:54;;;;;;;;;;;;;;;;;;1898702;28;7013;-63
2021/12/22 03:38:51;;;;;;;;;;;;;;;;;;1903555;28;7026;-64
2021/12/22 03:39:49;;;;;;;;;;;;;;;;;;1905805;28;7042;-64
2021/12/22 03:40:46;;;;;;;;;;;;;;;;;;1906305;28;7046;-63
2021/12/22 03:41:46;;;;;;;;;;;;;;;;;;1905797;28;7305;-63
2021/12/22 03:42:43;;;;;;;;;;;;;;;;;;1906132;28;7009;-63
2021/12/22 03:43:41;;;;;;;;;;;;;;;;;;1906485;28;7113;-63
2021/12/22 03:44:39;;;;;;;;;;;;;;;;;;1906171;28;7097;-63
2021/12/22 03:45:37;;;;;;;;;;;;;;;;;;1905698;28;7009;-63
2021/12/22 03:46:36;;;;;;;;;;;;;;;;;;1906098;28;7057;-63
2021/12/22 03:47:33;;;;;;;;;;;;;;;;;;1905578;28;7010;-63
2021/12/22 03:48:31;;;;;;;;;;;;;;;;;;1905152;28;7047;-62
2021/12/22 03:49:28;;;;;;;;;;;;;;;;;;1905819;28;7025;-64
2021/12/22 03:50:26;;;;;;;;;;;;;;;;;;1905085;28;7094;-63
2021/12/22 03:51:24;;;;;;;;;;;;;;;;;;1905560;28;7006;-63
2021/12/22 03:52:21;;;;;;;;;;;;;;;;;;1905313;28;7041;-63
2021/12/22 03:53:20;;;;;;;;;;;;;;;;;;1906280;28;8047;-63
2021/12/22 03:54:17;;;;;;;;;;;;;;;;;;1904491;28;7033;-64
2021/12/22 03:55:14;;;;;;;;;;;;;;;;;;1905663;28;7100;-63
2021/12/22 03:56:12;;;;;;;;;;;;;;;;;;1905509;28;7013;-63
2021/12/22 03:57:09;;;;;;;;;;;;;;;;;;1903761;28;7104;-64
2021/12/22 03:58:07;;;;;;;;;;;;;;;;;;1905949;28;7264;-64
2021/12/22 03:59:05;;;;;;;;;;;;;;;;;;1905672;28;7136;-63
2021/12/22 04:00:07;;;;;;;;;;;;;;;;;;1905713;28;7096;-63
2021/12/22 04:01:05;;;;;;;;;;;;;;;;;;1906650;28;7010;-64
2021/12/22 04:02:03;;;;;;;;;;;;;;;;;;1905685;28;7013;-63
2021/12/22 04:03:02;;;;;;;;;;;;;;;;;;1898088;28;7046;-64
2021/12/22 04:04:05;;;;;;;;;;;;;;;;;;1897587;28;8051;-64
2021/12/22 04:05:04;;;;;;;;;;;;;;;;;;1905622;28;7096;-62
2021/12/22 04:06:01;;;;;;;;;;;;;;;;;;1905786;28;7010;-63
2021/12/22 04:06:59;;;;;;;;;;;;;;;;;;1905287;28;7009;-64
2021/12/22 04:07:56;;;;;;;;;;;;;;;;;;1906407;28;7096;-63
2021/12/22 04:08:54;;;;;;;;;;;;;;;;;;1906350;28;7093;-64
2021/12/22 04:09:53;;;;;;;;;;;;;;;;;;1905995;28;7045;-63
2021/12/22 04:10:50;;;;;;;;;;;;;;;;;;1905668;28;7168;-64
2021/12/22 04:11:48;;;;;;;;;;;;;;;;;;1905742;28;7009;-63
2021/12/22 04:12:56;;;;;;;;;;;;;;;;;;1904960;28;7037;-62
2021/12/22 04:13:53;;;;;;;;;;;;;;;;;;1905009;28;7014;-63
2021/12/22 04:14:51;;;;;;;;;;;;;;;;;;1904410;28;7017;-63
2021/12/22 04:15:49;;;;;;;;;;;;;;;;;;1905939;28;7093;-62
2021/12/22 04:16:46;;;;;;;;;;;;;;;;;;1906596;28;7018;-63
2021/12/22 04:17:43;;;;;;;;;;;;;;;;;;1905508;28;7137;-63
2021/12/22 04:18:41;;;;;;;;;;;;;;;;;;1905846;28;7174;-63
2021/12/22 04:19:38;;;;;;;;;;;;;;;;;;1897909;28;7366;-63
2021/12/22 04:20:36;;;;;;;;;;;;;;;;;;1897483;28;7013;-63
2021/12/22 04:21:34;;;;;;;;;;;;;;;;;;1904543;28;7113;-64
2021/12/22 04:22:31;;;;;;;;;;;;;;;;;;1905810;28;7062;-63
2021/12/22 04:23:29;;;;;;;;;;;;;;;;;;1906321;28;7108;-63
2021/12/22 04:24:26;;;;;;;;;;;;;;;;;;1906181;28;7009;-63
2021/12/22 04:25:23;;;;;;;;;;;;;;;;;;1905690;28;7066;-63
2021/12/22 04:26:23;;;;;;;;;;;;;;;;;;1905680;28;7340;-63
2021/12/22 04:27:20;;;;;;;;;;;;;;;;;;1905867;28;7010;-63
2021/12/22 04:28:18;;;;;;;;;;;;;;;;;;1905609;28;7010;-63
2021/12/22 04:29:15;;;;;;;;;;;;;;;;;;1906001;28;7002;-64
2021/12/22 04:30:12;;;;;;;;;;;;;;;;;;1906175;28;7002;-63
2021/12/22 04:31:10;;;;;;;;;;;;;;;;;;1906021;28;7013;-63
2021/12/22 04:32:12;;;;;;;;;;;;;;;;;;1905740;28;7092;-64
2021/12/22 04:33:09;;;;;;;;;;;;;;;;;;1906014;28;7014;-63
2021/12/22 04:34:09;;;;;;;;;;;;;;;;;;1906063;28;7092;-63
2021/12/22 04:35:07;;;;;;;;;;;;;;;;;;1905955;28;8111;-63
2021/12/22 04:36:05;;;;;;;;;;;;;;;;;;1905311;28;7042;-63
2021/12/22 04:37:02;;;;;;;;;;;;;;;;;;1901488;28;7109;-63
2021/12/22 04:38:00;;;;;;;;;;;;;;;;;;1906101;28;7268;-63
2021/12/22 04:38:59;;;;;;;;;;;;;;;;;;1905572;28;7107;-63
2021/12/22 04:39:57;;;;;;;;;;;;;;;;;;1905195;28;7088;-63
2021/12/22 04:40:54;;;;;;;;;;;;;;;;;;1905163;28;7048;-64
2021/12/22 04:41:51;;;;;;;;;;;;;;;;;;1905511;28;7151;-63
2021/12/22 04:42:49;;;;;;;;;;;;;;;;;;1905634;28;7005;-63
2021/12/22 04:43:46;;;;;;;;;;;;;;;;;;1901108;28;7021;-63
2021/12/22 04:44:44;;;;;;;;;;;;;;;;;;1903572;28;7164;-63
2021/12/22 04:45:42;;;;;;;;;;;;;;;;;;1905318;28;7145;-62
2021/12/22 04:46:39;;;;;;;;;;;;;;;;;;1905272;28;7101;-63
2021/12/22 04:47:37;;;;;;;;;;;;;;;;;;1905620;28;8045;-64
2021/12/22 04:48:35;;;;;;;;;;;;;;;;;;1905134;28;7034;-63
2021/12/22 04:49:32;;;;;;;;;;;;;;;;;;1905008;28;7002;-63
2021/12/22 04:50:32;;;;;;;;;;;;;;;;;;1904825;28;7088;-63
2021/12/22 04:51:31;;;;;;;;;;;;;;;;;;1902064;28;7336;-64
2021/12/22 04:52:37;;;;;;;;;;;;;;;;;;1905049;28;7092;-63
2021/12/22 04:53:46;;;;;;;;;;;;;;;;;;1899078;28;7014;-63
2021/12/22 04:55:01;;;;;;;;;;;;;;;;;;1903124;28;7002;-64
2021/12/22 04:55:58;;;;;;;;;;;;;;;;;;1905429;28;7002;-63
2021/12/22 04:56:57;;;;;;;;;;;;;;;;;;1905305;28;7038;-63
2021/12/22 04:57:55;;;;;;;;;;;;;;;;;;1905602;28;7026;-63
2021/12/22 04:58:53;;;;;;;;;;;;;;;;;;1905023;28;7006;-63
2021/12/22 04:59:50;;;;;;;;;;;;;;;;;;1905490;28;7005;-63
2021/12/22 05:00:47;;;;;;;;;;;;;;;;;;1905212;28;7092;-63
2021/12/22 05:01:45;;;;;;;;;;;;;;;;;;1905634;28;7038;-63
2021/12/22 05:02:44;;;;;;;;;;;;;;;;;;1905441;28;7010;-63
2021/12/22 05:03:41;;;;;;;;;;;;;;;;;;1905214;28;7046;-64
2021/12/22 05:04:39;;;;;;;;;;;;;;;;;;1905249;28;7010;-63
2021/12/22 05:05:36;;;;;;;;;;;;;;;;;;1905563;28;7013;-63
2021/12/22 05:06:35;;;;;;;;;;;;;;;;;;1905108;28;7017;-62
2021/12/22 05:07:32;;;;;;;;;;;;;;;;;;1905383;28;7014;-63
2021/12/22 05:08:29;;;;;;;;;;;;;;;;;;1905112;28;7025;-63
2021/12/22 05:09:27;;;;;;;;;;;;;;;;;;1905703;28;7046;-63
2021/12/22 05:10:25;;;;;;;;;;;;;;;;;;1905716;28;7025;-63
2021/12/22 05:11:22;;;;;;;;;;;;;;;;;;1905294;28;7025;-63
2021/12/22 05:12:20;;;;;;;;;;;;;;;;;;1905419;28;7009;-63
2021/12/22 05:13:19;;;;;;;;;;;;;;;;;;1904742;28;7112;-63
2021/12/22 05:14:17;;;;;;;;;;;;;;;;;;1905392;28;7109;-64
2021/12/22 05:15:19;;;;;;;;;;;;;;;;;;1905180;28;7128;-63
2021/12/22 05:16:18;;;;;;;;;;;;;;;;;;1905742;28;7009;-63
2021/12/22 05:17:37;;;;;;;;;;;;;;;;;;1904146;28;7066;-63
2021/12/22 05:19:51;;;;;;;;;;;;;;;;;;1905184;28;7372;-63
2021/12/22 05:20:49;;;;;;;;;;;;;;;;;;1905470;28;7044;-63
2021/12/22 05:21:46;;;;;;;;;;;;;;;;;;1904792;28;8478;-64
2021/12/22 05:22:43;;;;;;;;;;;;;;;;;;1898083;28;7096;-63
2021/12/22 05:23:41;;;;;;;;;;;;;;;;;;1897858;28;7014;-62
2021/12/22 05:24:38;;;;;;;;;;;;;;;;;;1903318;28;7029;-64
2021/12/22 05:25:36;;;;;;;;;;;;;;;;;;1905332;28;7121;-63
2021/12/22 05:26:33;;;;;;;;;;;;;;;;;;1905232;28;7017;-63
2021/12/22 05:27:31;;;;;;;;;;;;;;;;;;1897470;28;7010;-62
2021/12/22 05:28:28;;;;;;;;;;;;;;;;;;1897473;28;7037;-63
2021/12/22 05:29:25;;;;;;;;;;;;;;;;;;1904886;28;7009;-63
2021/12/22 05:30:23;;;;;;;;;;;;;;;;;;1905390;28;7101;-63
2021/12/22 05:31:21;;;;;;;;;;;;;;;;;;1905036;28;7009;-63
2021/12/22 05:32:18;;;;;;;;;;;;;;;;;;1905721;28;7006;-63
2021/12/22 05:33:16;;;;;;;;;;;;;;;;;;1905361;28;7025;-63
2021/12/22 05:34:13;;;;;;;;;;;;;;;;;;1905165;28;7038;-63
2021/12/22 05:35:11;;;;;;;;;;;;;;;;;;1904933;28;7029;-63
2021/12/22 05:36:08;;;;;;;;;;;;;;;;;;1904975;28;7042;-64
2021/12/22 05:37:05;;;;;;;;;;;;;;;;;;1905742;28;7097;-63
2021/12/22 05:38:03;;;;;;;;;;;;;;;;;;1905541;28;7092;-63
2021/12/22 05:39:00;;;;;;;;;;;;;;;;;;1905349;28;7045;-62
2021/12/22 05:39:58;;;;;;;;;;;;;;;;;;1905681;28;8026;-63
2021/12/22 05:40:55;;;;;;;;;;;;;;;;;;1905265;28;7137;-63
2021/12/22 05:41:54;;;;;;;;;;;;;;;;;;1905509;28;7619;-63
2021/12/22 05:42:51;;;;;;;;;;;;;;;;;;1904705;28;7013;-63
2021/12/22 05:43:49;;;;;;;;;;;;;;;;;;1905955;28;7022;-64
2021/12/22 05:44:46;;;;;;;;;;;;;;;;;;1905176;28;7320;-63
2021/12/22 05:45:44;;;;;;;;;;;;;;;;;;1904937;28;7042;-63
2021/12/22 05:46:41;;;;;;;;;;;;;;;;;;1905217;28;7046;-63
2021/12/22 05:47:38;;;;;;;;;;;;;;;;;;1905403;28;7100;-63
2021/12/22 05:48:36;;;;;;;;;;;;;;;;;;1905095;28;7088;-63
2021/12/22 05:49:34;;;;;;;;;;;;;;;;;;1905623;28;7021;-63
2021/12/22 05:50:31;;;;;;;;;;;;;;;;;;1900574;28;7112;-63
2021/12/22 05:51:32;;;;;;;;;;;;;;;;;;1904679;28;7010;-63
2021/12/22 05:52:30;;;;;;;;;;;;;;;;;;1904978;28;7005;-64
2021/12/22 05:53:28;;;;;;;;;;;;;;;;;;1903458;28;7038;-63
2021/12/22 05:54:25;;;;;;;;;;;;;;;;;;1900010;28;7052;-63
2021/12/22 05:55:23;;;;;;;;;;;;;;;;;;1901150;28;7005;-63
2021/12/22 05:56:21;;;;;;;;;;;;;;;;;;1903607;28;7038;-63
2021/12/22 05:57:18;;;;;;;;;;;;;;;;;;1905254;28;7006;-63
2021/12/22 05:58:16;;;;;;;;;;;;;;;;;;1905096;28;7010;-63
2021/12/22 05:59:13;;;;;;;;;;;;;;;;;;1905239;28;7005;-63
2021/12/22 06:00:11;;;;;;;;;;;;;;;;;;1904983;28;7005;-63
2021/12/22 06:01:08;;;;;;;;;;;;;;;;;;1904428;28;7066;-63
2021/12/22 06:02:06;;;;;;;;;;;;;;;;;;1905026;28;7009;-63
2021/12/22 06:03:04;;;;;;;;;;;;;;;;;;1902383;28;7092;-64
2021/12/22 06:04:03;;;;;;;;;;;;;;;;;;1904849;28;7010;-63
2021/12/22 06:05:01;;;;;;;;;;;;;;;;;;1905231;28;7196;-63
2021/12/22 06:05:58;;;;;;;;;;;;;;;;;;1904884;28;7014;-64
2021/12/22 06:06:56;;;;;;;;;;;;;;;;;;1905455;28;7035;-63
2021/12/22 06:07:53;;;;;;;;;;;;;;;;;;1904986;28;7005;-64
2021/12/22 06:08:51;;;;;;;;;;;;;;;;;;1905356;28;8016;-63
2021/12/22 06:09:48;;;;;;;;;;;;;;;;;;1905458;28;7005;-63
2021/12/22 06:10:45;;;;;;;;;;;;;;;;;;1905534;28;7005;-63
2021/12/22 06:11:43;;;;;;;;;;;;;;;;;;1904361;28;8063;-63
2021/12/22 06:12:40;;;;;;;;;;;;;;;;;;1905259;28;7117;-63
2021/12/22 06:13:38;;;;;;;;;;;;;;;;;;1904593;28;7010;-63
2021/12/22 06:14:35;;;;;;;;;;;;;;;;;;1905484;28;7321;-63
2021/12/22 06:15:34;;;;;;;;;;;;;;;;;;1905238;28;7034;-63
2021/12/22 06:16:32;;;;;;;;;;;;;;;;;;1905292;28;7093;-62
2021/12/22 06:17:29;;;;;;;;;;;;;;;;;;1905361;28;7042;-64
2021/12/22 06:18:28;;;;;;;;;;;;;;;;;;1905350;28;7009;-63
2021/12/22 06:19:25;;;;;;;;;;;;;;;;;;1905580;28;7196;-63
2021/12/22 06:20:23;;;;;;;;;;;;;;;;;;1904745;28;7093;-63
2021/12/22 06:21:21;;;;;;;;;;;;;;;;;;1903658;28;7116;-63
2021/12/22 06:22:19;;;;;;;;;;;;;;;;;;1904201;28;7297;-63
2021/12/22 06:23:16;;;;;;;;;;;;;;;;;;1905168;28;7133;-63
2021/12/22 06:24:14;;;;;;;;;;;;;;;;;;1905308;28;7034;-63
2021/12/22 06:25:11;;;;;;;;;;;;;;;;;;1906048;28;7152;-63
2021/12/22 06:26:09;;;;;;;;;;;;;;;;;;1905513;28;7046;-63
2021/12/22 06:27:06;;;;;;;;;;;;;;;;;;1905595;28;7034;-63
2021/12/22 06:28:05;;;;;;;;;;;;;;;;;;1904967;28;7038;-63
2021/12/22 06:29:05;;;;;;;;;;;;;;;;;;1905087;28;7014;-63
2021/12/22 06:30:03;;;;;;;;;;;;;;;;;;1904967;28;7088;-63
2021/12/22 06:31:00;;;;;;;;;;;;;;;;;;1900892;28;7010;-63
2021/12/22 06:31:58;;;;;;;;;;;;;;;;;;1905117;28;7009;-63
2021/12/22 06:32:55;;;;;;;;;;;;;;;;;;1903716;28;7698;-63
2021/12/22 06:33:52;;;;;;;;;;;;;;;;;;1897084;28;7221;-64
2021/12/22 06:34:50;;;;;;;;;;;;;;;;;;1897389;28;7017;-63
2021/12/22 06:35:48;;;;;;;;;;;;;;;;;;1903776;28;7093;-63
2021/12/22 06:36:45;;;;;;;;;;;;;;;;;;1901781;28;7621;-63
2021/12/22 06:37:44;;;;;;;;;;;;;;;;;;1902613;28;7001;-62
2021/12/22 06:38:41;;;;;;;;;;;;;;;;;;1905052;28;7096;-63
2021/12/22 06:39:39;;;;;;;;;;;;;;;;;;1904230;28;7124;-63
2021/12/22 06:40:37;;;;;;;;;;;;;;;;;;1905217;28;7014;-63
2021/12/22 06:41:35;;;;;;;;;;;;;;;;;;1905333;28;7021;-64
2021/12/22 06:42:33;;;;;;;;;;;;;;;;;;1905307;28;7013;-64
2021/12/22 06:43:30;;;;;;;;;;;;;;;;;;1903909;28;7013;-63
2021/12/22 06:44:28;;;;;;;;;;;;;;;;;;1904808;28;7046;-63
2021/12/22 06:45:25;;;;;;;;;;;;;;;;;;1904587;28;7089;-63
2021/12/22 06:46:22;;;;;;;;;;;;;;;;;;1905016;28;8035;-64
2021/12/22 06:47:20;;;;;;;;;;;;;;;;;;1904607;28;7104;-63
2021/12/22 06:48:17;;;;;;;;;;;;;;;;;;1903994;28;7092;-64
2021/12/22 06:49:15;;;;;;;;;;;;;;;;;;1904423;28;7117;-63
2021/12/22 06:50:13;;;;;;;;;;;;;;;;;;1904972;28;7010;-63
2021/12/22 06:51:10;;;;;;;;;;;;;;;;;;1904757;28;7006;-64
2021/12/22 06:52:07;;;;;;;;;;;;;;;;;;1904448;28;7340;-63
2021/12/22 06:53:05;;;;;;;;;;;;;;;;;;1904287;28;7005;-64
2021/12/22 06:54:03;;;;;;;;;;;;;;;;;;1903901;28;8103;-62
2021/12/22 06:55:01;;;;;;;;;;;;;;;;;;1904342;28;7414;-64
2021/12/22 06:55:59;;;;;;;;;;;;;;;;;;1904827;28;7026;-64
2021/12/22 06:56:56;;;;;;;;;;;;;;;;;;1895408;28;7176;-63
2021/12/22 06:57:54;;;;;;;;;;;;;;;;;;1893597;28;7088;-64
2021/12/22 06:58:52;;;;;;;;;;;;;;;;;;1903049;28;7093;-64
2021/12/22 06:59:49;;;;;;;;;;;;;;;;;;1905061;28;7038;-64
2021/12/22 07:00:47;;;;;;;;;;;;;;;;;;1903822;28;7096;-64